createdAt,value
2022-10-21T00:00:18.298Z,61.69
2022-10-21T00:02:49.430Z,61.96
2022-10-21T00:05:21.083Z,61.79
2022-10-21T00:07:52.090Z,61.72
2022-10-21T00:10:23.682Z,61.82
2022-10-21T00:12:54.679Z,61.78
2022-10-21T00:15:25.754Z,61.66
2022-10-21T00:17:56.815Z,61.37
2022-10-21T00:20:27.890Z,61.78
2022-10-21T00:22:58.877Z,61.64
2022-10-21T00:25:29.996Z,61.67
2022-10-21T00:28:01.008Z,61.65
2022-10-21T00:30:32.094Z,61.85
2022-10-21T00:33:03.456Z,61.95
2022-10-21T00:35:37.230Z,61.92
2022-10-21T00:38:08.282Z,61.79
2022-10-21T00:40:39.312Z,61.98
2022-10-21T00:43:12.587Z,61.67
2022-10-21T00:45:45.237Z,61.71
2022-10-21T00:48:25.643Z,61.93
2022-10-21T00:51:02.210Z,61.71
2022-10-21T00:53:35.110Z,61.59
2022-10-21T00:56:15.530Z,61.97
2022-10-21T00:58:50.265Z,61.76
2022-10-21T01:01:21.961Z,61.90
2022-10-21T01:03:53.151Z,61.84
2022-10-21T01:06:27.762Z,61.80
2022-10-21T01:09:00.160Z,62.01
2022-10-21T01:11:36.669Z,61.78
2022-10-21T01:14:21.555Z,61.67
2022-10-21T01:16:59.863Z,61.81
2022-10-21T01:20:06.669Z,61.75
2022-10-21T01:22:57.498Z,61.88
2022-10-21T01:25:53.241Z,62.17
2022-10-21T01:28:35.830Z,62.12
2022-10-21T01:31:14.135Z,61.97
2022-10-21T01:33:47.704Z,62.17
2022-10-21T01:36:32.191Z,61.92
2022-10-21T01:39:24.644Z,61.84
2022-10-21T01:42:04.182Z,61.87
2022-10-21T01:44:42.696Z,61.81
2022-10-21T01:47:18.498Z,61.47
2022-10-21T01:49:53.809Z,61.55
2022-10-21T01:52:25.461Z,61.43
2022-10-21T01:55:00.451Z,61.60
2022-10-21T01:57:37.222Z,61.65
2022-10-21T02:00:10.273Z,61.77
2022-10-21T02:02:45.423Z,61.74
2022-10-21T02:05:17.169Z,61.52
2022-10-21T02:07:48.959Z,61.83
2022-10-21T02:10:21.397Z,61.51
2022-10-21T02:12:56.180Z,61.31
2022-10-21T02:15:28.704Z,61.21
2022-10-21T02:18:04.287Z,61.49
2022-10-21T02:20:42.228Z,61.44
2022-10-21T02:23:18.470Z,61.30
2022-10-21T02:25:51.946Z,61.15
2022-10-21T02:28:24.578Z,61.12
2022-10-21T02:31:04.230Z,61.30
2022-10-21T02:33:46.007Z,61.23
2022-10-21T02:36:21.230Z,61.54
2022-10-21T02:38:52.543Z,61.36
2022-10-21T02:41:26.206Z,61.44
2022-10-21T02:44:01.225Z,61.65
2022-10-21T02:46:38.869Z,61.55
2022-10-21T02:49:10.470Z,61.82
2022-10-21T02:51:43.541Z,61.74
2022-10-21T02:54:14.700Z,61.87
2022-10-21T02:56:45.725Z,61.93
2022-10-21T02:59:16.915Z,62.16
2022-10-21T03:01:47.899Z,62.58
2022-10-21T03:04:18.935Z,62.24
2022-10-21T03:06:49.996Z,62.41
2022-10-21T03:09:21.103Z,62.62
2022-10-21T03:11:52.161Z,62.62
2022-10-21T03:14:23.154Z,62.65
2022-10-21T03:16:54.178Z,62.22
2022-10-21T03:19:25.290Z,62.54
2022-10-21T03:21:56.326Z,62.73
2022-10-21T03:24:28.753Z,62.91
2022-10-21T03:27:00.327Z,62.60
2022-10-21T03:29:31.363Z,62.97
2022-10-21T03:32:02.353Z,63.38
2022-10-21T03:34:33.513Z,62.96
2022-10-21T03:37:04.594Z,63.37
2022-10-21T03:39:35.642Z,63.46
2022-10-21T03:42:07.390Z,63.37
2022-10-21T03:44:38.510Z,63.33
2022-10-21T03:47:09.776Z,63.48
2022-10-21T03:49:40.838Z,63.48
2022-10-21T03:52:11.960Z,63.88
2022-10-21T03:54:42.963Z,63.92
2022-10-21T03:57:14.004Z,63.62
2022-10-21T03:59:45.037Z,63.75
2022-10-21T04:02:16.122Z,64.01
2022-10-21T04:04:47.281Z,63.89
2022-10-21T04:07:18.815Z,63.63
2022-10-21T04:09:49.923Z,63.89
2022-10-21T04:12:21.033Z,63.70
2022-10-21T04:14:52.198Z,63.57
2022-10-21T04:17:23.148Z,63.83
2022-10-21T04:19:54.263Z,63.77
2022-10-21T04:22:25.438Z,63.75
2022-10-21T04:24:58.655Z,63.90
2022-10-21T04:27:32.442Z,64.08
2022-10-21T04:30:04.099Z,64.20
2022-10-21T04:32:35.486Z,63.90
2022-10-21T04:35:07.511Z,64.15
2022-10-21T04:37:40.351Z,63.94
2022-10-21T04:40:13.214Z,63.97
2022-10-21T04:42:48.595Z,64.22
2022-10-21T04:45:20.099Z,63.94
2022-10-21T04:47:51.242Z,64.12
2022-10-21T04:50:22.335Z,64.34
2022-10-21T04:52:55.954Z,63.99
2022-10-21T04:55:26.981Z,63.91
2022-10-21T04:57:58.077Z,63.98
2022-10-21T05:00:31.380Z,64.00
2022-10-21T05:03:02.954Z,63.82
2022-10-21T05:05:34.171Z,63.95
2022-10-21T05:08:10.668Z,63.88
2022-10-21T05:10:43.271Z,63.68
2022-10-21T05:13:14.469Z,63.72
2022-10-21T05:15:45.595Z,63.65
2022-10-21T05:18:16.774Z,63.77
2022-10-21T05:20:53.159Z,63.63
2022-10-21T05:23:25.008Z,63.11
2022-10-21T05:25:56.121Z,63.37
2022-10-21T05:28:28.149Z,63.31
2022-10-21T05:30:59.399Z,63.38
2022-10-21T05:33:30.950Z,63.17
2022-10-21T05:36:05.286Z,63.19
2022-10-21T05:38:37.362Z,63.07
2022-10-21T05:41:10.989Z,63.56
2022-10-21T05:43:42.025Z,63.28
2022-10-21T05:46:13.882Z,63.26
2022-10-21T05:48:45.489Z,62.94
2022-10-21T05:51:16.570Z,63.14
2022-10-21T05:53:47.664Z,63.17
2022-10-21T05:56:18.859Z,63.42
2022-10-21T05:58:51.531Z,62.78
2022-10-21T06:01:22.684Z,62.22
2022-10-21T06:03:56.310Z,61.83
2022-10-21T06:06:27.344Z,61.93
2022-10-21T06:08:58.398Z,61.62
2022-10-21T06:11:29.500Z,61.64
2022-10-21T06:14:00.659Z,61.51
2022-10-21T06:16:35.279Z,61.54
2022-10-21T06:19:06.433Z,61.71
2022-10-21T06:21:37.477Z,61.81
2022-10-21T06:24:09.025Z,61.77
2022-10-21T06:26:40.051Z,61.74
2022-10-21T06:29:11.156Z,61.85
2022-10-21T06:31:42.123Z,61.94
2022-10-21T06:34:13.301Z,61.56
2022-10-21T06:36:44.157Z,61.49
2022-10-21T06:39:15.036Z,61.70
2022-10-21T06:41:45.879Z,61.92
2022-10-21T06:44:20.871Z,62.03
2022-10-21T06:46:51.719Z,62.67
2022-10-21T06:49:23.403Z,62.76
2022-10-21T06:51:54.780Z,62.08
2022-10-21T06:54:25.715Z,61.85
2022-10-21T06:56:56.545Z,61.15
2022-10-21T06:59:27.670Z,60.03
2022-10-21T07:02:00.895Z,58.80
2022-10-21T07:04:32.255Z,57.71
2022-10-21T07:07:03.122Z,56.92
2022-10-21T07:09:34.231Z,56.54
2022-10-21T07:12:05.471Z,55.60
2022-10-21T07:14:36.352Z,55.14
2022-10-21T07:17:07.291Z,54.70
2022-10-21T07:19:38.242Z,54.23
2022-10-21T07:22:09.066Z,54.11
2022-10-21T07:24:40.140Z,53.57
2022-10-21T07:27:10.970Z,53.84
2022-10-21T07:29:42.007Z,53.76
2022-10-21T07:32:12.992Z,53.12
2022-10-21T07:34:43.963Z,52.95
2022-10-21T07:37:14.836Z,52.55
2022-10-21T07:39:45.762Z,52.22
2022-10-21T07:42:16.588Z,51.87
2022-10-21T07:44:47.644Z,50.64
2022-10-21T07:47:18.476Z,49.45
2022-10-21T07:49:49.413Z,48.50
2022-10-21T07:52:20.284Z,48.65
2022-10-21T07:54:51.105Z,49.08
2022-10-21T07:57:22.093Z,49.54
2022-10-21T07:59:52.927Z,49.86
2022-10-21T08:02:24.891Z,50.12
2022-10-21T08:04:58.494Z,50.20
2022-10-21T08:07:29.555Z,50.06
2022-10-21T08:10:00.783Z,50.17
2022-10-21T08:12:31.738Z,50.27
2022-10-21T08:15:02.728Z,50.61
2022-10-21T08:17:33.629Z,50.69
2022-10-21T08:20:04.780Z,51.25
2022-10-21T08:22:35.489Z,51.69
2022-10-21T08:25:07.392Z,52.34
2022-10-21T08:27:38.313Z,52.77
2022-10-21T08:30:10.932Z,53.24
2022-10-21T08:32:41.798Z,52.81
2022-10-21T08:35:13.066Z,52.47
2022-10-21T08:37:48.840Z,52.39
2022-10-21T08:40:20.582Z,52.90
2022-10-21T08:42:51.836Z,53.43
2022-10-21T08:45:33.940Z,53.37
2022-10-21T08:48:11.527Z,53.02
2022-10-21T08:50:46.524Z,53.01
2022-10-21T08:53:22.721Z,52.90
2022-10-21T08:55:58.987Z,52.66
2022-10-21T08:58:29.932Z,52.40
2022-10-21T09:01:06.944Z,52.58
2022-10-21T09:03:47.783Z,52.83
2022-10-21T09:06:29.469Z,52.88
2022-10-21T09:09:16.204Z,53.06
2022-10-21T09:11:59.006Z,53.16
2022-10-21T09:14:47.446Z,53.49
2022-10-21T09:17:35.595Z,53.82
2022-10-21T09:20:42.470Z,53.92
2022-10-21T09:23:41.503Z,53.83
2022-10-21T09:26:30.178Z,53.65
2022-10-21T09:29:14.166Z,53.46
2022-10-21T09:32:02.131Z,53.59
2022-10-21T09:34:45.334Z,52.97
2022-10-21T09:37:24.363Z,52.35
2022-10-21T09:40:04.837Z,51.95
2022-10-21T09:42:47.229Z,52.03
2022-10-21T09:45:28.392Z,52.21
2022-10-21T09:48:02.648Z,52.14
2022-10-21T09:50:35.854Z,52.14
2022-10-21T09:53:10.506Z,52.07
2022-10-21T09:55:42.412Z,52.05
2022-10-21T09:58:27.352Z,51.53
2022-10-21T10:00:59.049Z,51.35
2022-10-21T10:03:38.854Z,51.39
2022-10-21T10:06:20.811Z,51.54
2022-10-21T10:09:06.374Z,51.64
2022-10-21T10:11:49.068Z,51.66
2022-10-21T10:14:45.285Z,51.70
2022-10-21T10:17:33.769Z,51.70
2022-10-21T10:20:20.896Z,51.76
2022-10-21T10:23:11.210Z,51.69
2022-10-21T10:25:42.558Z,51.47
2022-10-21T10:28:26.807Z,51.15
2022-10-21T10:30:58.632Z,51.33
2022-10-21T10:33:32.551Z,51.55
2022-10-21T10:36:09.465Z,51.59
2022-10-21T10:38:45.256Z,51.85
2022-10-21T10:41:18.738Z,51.60
2022-10-21T10:43:52.968Z,51.32
2022-10-21T10:46:29.391Z,51.51
2022-10-21T10:49:06.668Z,51.48
2022-10-21T10:51:40.607Z,51.50
2022-10-21T10:54:24.101Z,51.92
2022-10-21T10:56:59.376Z,51.84
2022-10-21T10:59:36.411Z,51.45
2022-10-21T11:02:25.978Z,51.42
2022-10-21T11:05:17.514Z,51.50
2022-10-21T11:07:51.686Z,51.69
2022-10-21T11:10:36.464Z,51.72
2022-10-21T11:13:11.316Z,51.80
2022-10-21T11:15:54.477Z,51.45
2022-10-21T11:18:34.609Z,51.43
2022-10-21T11:21:29.040Z,51.58
2022-10-21T11:24:17.467Z,51.67
2022-10-21T11:26:56.319Z,51.69
2022-10-21T11:29:41.081Z,51.67
2022-10-21T11:32:26.360Z,51.69
2022-10-21T11:35:06.972Z,51.88
2022-10-21T11:37:51.104Z,51.95
2022-10-21T11:40:33.990Z,52.02
2022-10-21T11:43:18.756Z,51.88
2022-10-21T11:45:59.966Z,51.71
2022-10-21T11:48:46.009Z,51.93
2022-10-21T11:51:28.789Z,51.98
2022-10-21T11:54:18.306Z,51.93
2022-10-21T11:56:59.269Z,52.04
2022-10-21T11:59:43.405Z,52.16
2022-10-21T12:02:21.705Z,52.36
2022-10-21T12:05:04.497Z,52.42
2022-10-21T12:07:45.520Z,52.64
2022-10-21T12:10:27.306Z,52.71
2022-10-21T12:13:00.241Z,53.08
2022-10-21T12:15:38.896Z,53.11
2022-10-21T12:18:16.703Z,53.26
2022-10-21T12:20:50.898Z,53.48
2022-10-21T12:23:25.635Z,53.48
2022-10-21T12:26:16.360Z,53.83
2022-10-21T12:28:56.468Z,54.31
2022-10-21T12:31:38.992Z,54.37
2022-10-21T12:34:12.794Z,54.08
2022-10-21T12:36:47.010Z,54.21
2022-10-21T12:39:50.853Z,54.18
2022-10-21T12:42:26.579Z,54.34
2022-10-21T12:44:57.451Z,54.40
2022-10-21T12:47:33.134Z,54.73
2022-10-21T12:50:19.565Z,54.56
2022-10-21T12:53:07.943Z,54.71
2022-10-21T12:55:42.027Z,54.82
2022-10-21T12:58:26.813Z,54.82
2022-10-21T13:01:00.299Z,54.97
2022-10-21T13:03:53.273Z,54.81
2022-10-21T13:06:54.446Z,54.96
2022-10-21T13:09:41.007Z,54.80
2022-10-21T13:12:28.740Z,54.90
2022-10-21T13:15:01.832Z,54.85
2022-10-21T13:17:48.150Z,54.93
2022-10-21T13:20:49.311Z,54.96
2022-10-21T13:23:41.757Z,55.14
2022-10-21T13:26:25.236Z,55.26
2022-10-21T13:29:19.845Z,55.35
2022-10-21T13:32:10.701Z,55.41
2022-10-21T13:34:44.447Z,55.66
2022-10-21T13:37:18.215Z,55.81
2022-10-21T13:39:52.971Z,55.51
2022-10-21T13:42:25.150Z,56.09
2022-10-21T13:45:03.785Z,56.06
2022-10-21T13:47:36.354Z,56.18
2022-10-21T13:50:18.651Z,56.15
2022-10-21T13:52:49.644Z,56.39
2022-10-21T13:55:24.642Z,56.43
2022-10-21T13:57:57.331Z,56.49
2022-10-21T14:00:30.580Z,56.66
2022-10-21T14:03:06.177Z,56.94
2022-10-21T14:05:48.020Z,56.79
2022-10-21T14:08:26.391Z,56.85
2022-10-21T14:11:00.922Z,56.96
2022-10-21T14:13:36.673Z,56.98
2022-10-21T14:16:09.946Z,57.07
2022-10-21T14:18:46.309Z,57.07
2022-10-21T14:21:22.902Z,57.13
2022-10-21T14:23:54.534Z,57.21
2022-10-21T14:26:30.519Z,57.22
2022-10-21T14:29:02.775Z,57.47
2022-10-21T14:31:33.726Z,57.47
2022-10-21T14:34:07.374Z,57.48
2022-10-21T14:37:09.422Z,57.73
2022-10-21T14:39:42.852Z,57.83
2022-10-21T14:42:19.506Z,57.69
2022-10-21T14:44:53.049Z,57.75
2022-10-21T14:47:27.303Z,57.67
2022-10-21T14:50:00.645Z,57.67
2022-10-21T14:52:37.740Z,57.87
2022-10-21T14:55:14.793Z,57.86
2022-10-21T14:57:49.060Z,57.94
2022-10-21T15:00:29.822Z,57.86
2022-10-21T15:03:02.822Z,57.94
2022-10-21T15:05:38.783Z,57.96
2022-10-21T15:08:32.346Z,57.94
2022-10-21T15:11:26.710Z,57.85
2022-10-21T15:14:07.248Z,57.90
2022-10-21T15:16:39.906Z,57.85
2022-10-21T15:19:16.522Z,57.83
2022-10-21T15:21:53.054Z,57.91
2022-10-21T15:24:30.664Z,58.01
2022-10-21T15:27:03.121Z,57.77
2022-10-21T15:29:39.726Z,57.89
2022-10-21T15:32:15.479Z,58.27
2022-10-21T15:37:22.171Z,58.18
2022-10-21T15:39:53.019Z,58.12
2022-10-21T15:42:24.104Z,58.18
2022-10-21T15:44:54.985Z,58.16
2022-10-21T15:47:25.991Z,58.31
2022-10-21T15:49:57.120Z,58.30
2022-10-21T15:52:27.908Z,58.21
2022-10-21T15:54:58.702Z,58.41
2022-10-21T15:57:29.829Z,58.44
2022-10-21T16:00:00.715Z,58.63
2022-10-21T16:02:31.559Z,58.68
2022-10-21T16:05:02.395Z,58.60
2022-10-21T16:07:34.406Z,58.73
2022-10-21T16:10:20.240Z,58.63
2022-10-21T16:12:52.042Z,58.82
2022-10-21T16:15:23.457Z,58.64
2022-10-21T16:17:55.847Z,58.81
2022-10-21T16:20:29.220Z,58.85
2022-10-21T16:23:03.009Z,58.94
2022-10-21T16:25:34.877Z,58.90
2022-10-21T16:28:06.122Z,58.97
2022-10-21T16:30:39.217Z,59.19
2022-10-21T16:33:11.277Z,58.96
2022-10-21T16:35:42.780Z,59.05
2022-10-21T16:38:13.616Z,58.89
2022-10-21T16:40:44.528Z,58.95
2022-10-21T16:43:16.390Z,59.12
2022-10-21T16:45:47.293Z,59.11
2022-10-21T16:48:21.279Z,59.19
2022-10-21T16:50:52.186Z,59.02
2022-10-21T16:53:23.843Z,59.35
2022-10-21T16:55:54.636Z,59.36
2022-10-21T16:58:25.512Z,59.46
2022-10-21T17:00:56.831Z,59.35
2022-10-21T17:03:27.683Z,59.42
2022-10-21T17:05:58.558Z,59.34
2022-10-21T17:08:29.543Z,59.38
2022-10-21T17:11:00.832Z,59.58
2022-10-21T17:13:31.669Z,59.44
2022-10-21T17:16:02.532Z,59.58
2022-10-21T17:18:33.295Z,59.44
2022-10-21T17:21:04.809Z,59.76
2022-10-21T17:23:36.082Z,59.74
2022-10-21T17:26:07.111Z,59.83
2022-10-21T17:28:37.928Z,59.71
2022-10-21T17:31:10.476Z,59.96
2022-10-21T17:33:41.217Z,59.65
2022-10-21T17:36:12.826Z,59.74
2022-10-21T17:38:44.144Z,59.85
2022-10-21T17:41:16.406Z,59.85
2022-10-21T17:43:47.654Z,60.02
2022-10-21T17:46:20.872Z,59.94
2022-10-21T17:48:53.535Z,59.91
2022-10-21T17:51:26.205Z,60.00
2022-10-21T17:53:57.863Z,60.09
2022-10-21T17:56:28.681Z,59.91
2022-10-21T17:59:01.310Z,60.14
2022-10-21T18:01:32.237Z,60.32
2022-10-21T18:04:04.149Z,60.09
2022-10-21T18:06:35.053Z,60.26
2022-10-21T18:09:08.567Z,60.10
2022-10-21T18:11:39.591Z,60.21
2022-10-21T18:14:10.657Z,60.17
2022-10-21T18:16:41.626Z,60.33
2022-10-21T18:19:12.997Z,60.29
2022-10-21T18:21:43.802Z,60.35
2022-10-21T18:24:14.607Z,60.31
2022-10-21T18:26:45.488Z,60.40
2022-10-21T18:29:16.846Z,60.31
2022-10-21T18:31:47.871Z,60.56
2022-10-21T18:34:18.697Z,60.48
2022-10-21T18:36:49.519Z,60.60
2022-10-21T18:39:20.922Z,60.51
2022-10-21T18:41:51.863Z,60.59
2022-10-21T18:44:22.721Z,60.65
2022-10-21T18:46:55.937Z,60.81
2022-10-21T18:49:28.927Z,60.64
2022-10-21T18:52:00.327Z,60.67
2022-10-21T18:54:31.207Z,60.84
2022-10-21T18:57:02.417Z,60.74
2022-10-21T18:59:33.342Z,60.83
2022-10-21T19:02:04.804Z,60.82
2022-10-21T19:04:35.667Z,60.84
2022-10-21T19:07:06.528Z,60.88
2022-10-21T19:09:37.570Z,60.83
2022-10-21T19:12:11.952Z,60.79
2022-10-21T19:14:45.595Z,60.78
2022-10-21T19:17:16.675Z,60.97
2022-10-21T19:19:47.606Z,60.84
2022-10-21T19:22:20.240Z,60.98
2022-10-21T19:24:51.201Z,60.97
2022-10-21T19:27:22.291Z,60.98
2022-10-21T19:29:53.319Z,60.98
2022-10-21T19:32:24.155Z,60.96
2022-10-21T19:34:55.345Z,61.03
2022-10-21T19:37:26.245Z,60.90
2022-10-21T19:39:57.628Z,61.15
2022-10-21T19:42:29.270Z,60.86
2022-10-21T19:45:00.244Z,61.02
2022-10-21T19:47:31.428Z,61.14
2022-10-21T19:50:02.254Z,61.04
2022-10-21T19:52:33.131Z,60.82
2022-10-21T19:55:04.182Z,61.17
2022-10-21T19:57:35.128Z,61.05
2022-10-21T20:00:08.912Z,61.02
2022-10-21T20:02:42.729Z,61.03
2022-10-21T20:05:13.909Z,61.04
2022-10-21T20:07:44.752Z,60.96
2022-10-21T20:10:15.712Z,61.06
2022-10-21T20:12:46.642Z,61.17
2022-10-21T20:15:17.849Z,61.18
2022-10-21T20:17:49.284Z,61.00
2022-10-21T20:20:21.272Z,61.12
2022-10-21T20:22:52.280Z,61.22
2022-10-21T20:25:24.187Z,61.18
2022-10-21T20:27:54.992Z,61.17
2022-10-21T20:30:25.827Z,61.21
2022-10-21T20:32:56.988Z,61.32
2022-10-21T20:35:27.823Z,61.31
2022-10-21T20:37:58.781Z,61.18
2022-10-21T20:40:29.680Z,61.43
2022-10-21T20:43:00.612Z,61.07
2022-10-21T20:45:31.633Z,61.08
2022-10-21T20:48:02.973Z,61.16
2022-10-21T20:50:33.811Z,61.19
2022-10-21T20:53:04.671Z,61.18
2022-10-21T20:55:35.886Z,61.25
2022-10-21T20:58:09.478Z,61.30
2022-10-21T21:00:44.774Z,61.39
2022-10-21T21:03:17.304Z,61.59
2022-10-21T21:05:48.137Z,61.77
2022-10-21T21:08:18.983Z,61.73
2022-10-21T21:10:49.888Z,61.98
2022-10-21T21:13:20.725Z,62.04
2022-10-21T21:15:51.574Z,62.05
2022-10-21T21:18:22.458Z,62.30
2022-10-21T21:20:53.448Z,62.27
2022-10-21T21:23:24.401Z,62.43
2022-10-21T21:25:55.950Z,62.45
2022-10-21T21:28:27.015Z,62.35
2022-10-21T21:30:57.933Z,62.53
2022-10-21T21:33:28.811Z,62.71
2022-10-21T21:36:00.322Z,62.90
2022-10-21T21:38:32.448Z,62.86
2022-10-21T21:41:06.721Z,62.98
2022-10-21T21:43:43.818Z,63.02
2022-10-21T21:46:22.807Z,63.13
2022-10-21T21:48:57.364Z,63.22
2022-10-21T21:51:31.982Z,63.33
2022-10-21T21:54:02.898Z,63.51
2022-10-21T21:56:33.924Z,63.65
2022-10-21T21:59:04.797Z,63.58
2022-10-21T22:01:35.771Z,63.80
2022-10-21T22:04:06.742Z,63.67
2022-10-21T22:06:39.940Z,63.84
2022-10-21T22:09:12.773Z,63.82
2022-10-21T22:11:43.659Z,64.00
2022-10-21T22:14:14.502Z,64.11
2022-10-21T22:16:45.396Z,64.30
2022-10-21T22:19:16.337Z,64.33
2022-10-21T22:21:47.303Z,64.35
2022-10-21T22:24:18.182Z,64.62
2022-10-21T22:26:48.974Z,64.47
2022-10-21T22:29:19.875Z,64.75
2022-10-21T22:31:50.846Z,64.67
2022-10-21T22:34:21.721Z,64.63
2022-10-21T22:36:52.694Z,64.56
2022-10-21T22:39:24.334Z,64.71
2022-10-21T22:41:55.257Z,64.77
2022-10-21T22:44:26.087Z,64.57
2022-10-21T22:46:56.889Z,64.75
2022-10-21T22:49:27.774Z,65.02
2022-10-21T22:51:58.618Z,64.97
2022-10-21T22:54:48.191Z,65.08
2022-10-21T22:57:20.155Z,64.92
2022-10-21T22:59:53.521Z,64.92
2022-10-21T23:02:24.650Z,64.88
2022-10-21T23:04:55.490Z,64.98
2022-10-21T23:07:26.318Z,65.40
2022-10-21T23:09:57.187Z,65.26
2022-10-21T23:12:28.171Z,65.45
2022-10-21T23:14:59.125Z,65.51
2022-10-21T23:17:30.212Z,65.66
2022-10-21T23:20:01.222Z,65.71
2022-10-21T23:22:32.037Z,65.87
2022-10-21T23:25:02.905Z,65.64
2022-10-21T23:27:33.949Z,65.83
2022-10-21T23:30:05.302Z,65.82
2022-10-21T23:32:36.138Z,66.26
2022-10-21T23:35:08.285Z,66.30
2022-10-21T23:37:39.637Z,66.34
2022-10-21T23:40:13.060Z,66.26
2022-10-21T23:42:44.011Z,66.60
2022-10-21T23:45:15.011Z,66.47
2022-10-21T23:47:46.122Z,66.71
2022-10-21T23:50:17.569Z,66.81
2022-10-21T23:52:48.465Z,66.79
2022-10-21T23:55:19.507Z,66.75
2022-10-21T23:57:50.443Z,66.90
